sensor_id;sensor_type;location;lat;lon;timestamp;pressure;altitude;pressure_sealevel;temperature;humidity
27144;BME280;14672;50.250;8.312;2022-08-19T00:01:51;98471.84;;;23.73;58.29
27144;BME280;14672;50.250;8.312;2022-08-19T00:04:20;98467.59;;;23.74;58.43
27144;BME280;14672;50.250;8.312;2022-08-19T00:06:47;98464.16;;;23.63;58.69
27144;BME280;14672;50.250;8.312;2022-08-19T00:09:17;98473.50;;;23.69;58.51
27144;BME280;14672;50.250;8.312;2022-08-19T00:11:45;98465.03;;;23.58;58.50
27144;BME280;14672;50.250;8.312;2022-08-19T00:14:15;98478.44;;;23.48;58.97
27144;BME280;14672;50.250;8.312;2022-08-19T00:16:44;98477.88;;;23.49;58.92
27144;BME280;14672;50.250;8.312;2022-08-19T00:19:11;98481.44;;;23.55;58.78
27144;BME280;14672;50.250;8.312;2022-08-19T00:21:38;98485.13;;;23.56;58.76
27144;BME280;14672;50.250;8.312;2022-08-19T00:24:07;98484.91;;;23.54;58.66
27144;BME280;14672;50.250;8.312;2022-08-19T00:26:34;98480.66;;;23.55;58.72
27144;BME280;14672;50.250;8.312;2022-08-19T00:29:01;98483.66;;;23.49;59.03
27144;BME280;14672;50.250;8.312;2022-08-19T00:31:27;98481.34;;;23.48;59.20
27144;BME280;14672;50.250;8.312;2022-08-19T00:33:54;98477.75;;;23.55;59.00
27144;BME280;14672;50.250;8.312;2022-08-19T00:36:20;98482.56;;;23.52;59.08
27144;BME280;14672;50.250;8.312;2022-08-19T00:38:47;98474.41;;;23.51;59.08
27144;BME280;14672;50.250;8.312;2022-08-19T00:41:16;98474.97;;;23.49;59.22
27144;BME280;14672;50.250;8.312;2022-08-19T00:44:03;98468.97;;;23.47;59.12
27144;BME280;14672;50.250;8.312;2022-08-19T00:46:31;98461.59;;;23.46;59.38
27144;BME280;14672;50.250;8.312;2022-08-19T00:49:00;98455.78;;;23.46;59.58
27144;BME280;14672;50.250;8.312;2022-08-19T00:51:29;98457.56;;;23.49;59.23
27144;BME280;14672;50.250;8.312;2022-08-19T00:53:58;98454.22;;;23.45;59.36
27144;BME280;14672;50.250;8.312;2022-08-19T00:56:27;98449.50;;;23.42;59.29
27144;BME280;14672;50.250;8.312;2022-08-19T00:58:56;98456.38;;;23.45;59.58
27144;BME280;14672;50.250;8.312;2022-08-19T01:01:23;98458.00;;;23.40;59.92
27144;BME280;14672;50.250;8.312;2022-08-19T01:03:49;98455.19;;;23.34;59.84
27144;BME280;14672;50.250;8.312;2022-08-19T01:06:16;98455.88;;;23.27;60.17
27144;BME280;14672;50.250;8.312;2022-08-19T01:08:42;98443.59;;;23.34;59.69
27144;BME280;14672;50.250;8.312;2022-08-19T01:11:08;98442.38;;;23.30;60.01
27144;BME280;14672;50.250;8.312;2022-08-19T01:13:36;98447.38;;;23.29;60.11
27144;BME280;14672;50.250;8.312;2022-08-19T01:16:09;98439.91;;;23.34;59.88
27144;BME280;14672;50.250;8.312;2022-08-19T01:18:41;98443.94;;;23.31;59.71
27144;BME280;14672;50.250;8.312;2022-08-19T01:21:39;98435.34;;;23.25;60.04
27144;BME280;14672;50.250;8.312;2022-08-19T01:24:07;98438.72;;;23.16;60.42
27144;BME280;14672;50.250;8.312;2022-08-19T01:26:43;98433.69;;;23.17;60.41
27144;BME280;14672;50.250;8.312;2022-08-19T01:29:11;98439.78;;;23.13;60.11
27144;BME280;14672;50.250;8.312;2022-08-19T01:31:37;98441.50;;;23.09;60.31
27144;BME280;14672;50.250;8.312;2022-08-19T01:34:05;98432.78;;;23.09;60.63
27144;BME280;14672;50.250;8.312;2022-08-19T01:36:44;98436.69;;;23.11;60.52
27144;BME280;14672;50.250;8.312;2022-08-19T01:39:18;98431.56;;;23.04;60.53
27144;BME280;14672;50.250;8.312;2022-08-19T01:41:46;98427.09;;;23.03;60.45
27144;BME280;14672;50.250;8.312;2022-08-19T01:44:12;98428.88;;;23.06;60.63
27144;BME280;14672;50.250;8.312;2022-08-19T01:46:39;98431.56;;;23.04;60.66
27144;BME280;14672;50.250;8.312;2022-08-19T01:49:07;98429.53;;;22.99;60.91
27144;BME280;14672;50.250;8.312;2022-08-19T01:51:34;98427.53;;;22.94;60.81
27144;BME280;14672;50.250;8.312;2022-08-19T01:54:01;98426.28;;;22.89;60.93
27144;BME280;14672;50.250;8.312;2022-08-19T01:56:27;98438.44;;;22.88;61.08
27144;BME280;14672;50.250;8.312;2022-08-19T01:59:03;98432.41;;;22.86;61.05
27144;BME280;14672;50.250;8.312;2022-08-19T02:01:30;98451.44;;;22.81;61.18
27144;BME280;14672;50.250;8.312;2022-08-19T02:04:00;98456.03;;;22.77;61.13
27144;BME280;14672;50.250;8.312;2022-08-19T02:06:27;98450.31;;;22.71;61.47
27144;BME280;14672;50.250;8.312;2022-08-19T02:08:54;98457.88;;;22.74;61.48
27144;BME280;14672;50.250;8.312;2022-08-19T02:11:34;98450.31;;;22.71;61.24
27144;BME280;14672;50.250;8.312;2022-08-19T02:14:05;98448.81;;;22.65;61.31
27144;BME280;14672;50.250;8.312;2022-08-19T02:16:32;98449.91;;;22.62;61.61
27144;BME280;14672;50.250;8.312;2022-08-19T02:18:58;98441.22;;;22.62;61.34
27144;BME280;14672;50.250;8.312;2022-08-19T02:21:29;98433.88;;;22.61;61.29
27144;BME280;14672;50.250;8.312;2022-08-19T02:23:56;98439.75;;;22.55;61.49
27144;BME280;14672;50.250;8.312;2022-08-19T02:26:22;98438.50;;;22.51;61.66
27144;BME280;14672;50.250;8.312;2022-08-19T02:28:49;98444.31;;;22.51;61.95
27144;BME280;14672;50.250;8.312;2022-08-19T02:31:19;98454.44;;;22.44;61.71
27144;BME280;14672;50.250;8.312;2022-08-19T02:33:46;98466.06;;;22.38;61.78
27144;BME280;14672;50.250;8.312;2022-08-19T02:36:16;98456.94;;;22.34;61.93
27144;BME280;14672;50.250;8.312;2022-08-19T02:38:43;98452.25;;;22.31;62.04
27144;BME280;14672;50.250;8.312;2022-08-19T02:41:31;98443.78;;;22.33;61.78
27144;BME280;14672;50.250;8.312;2022-08-19T02:44:00;98450.84;;;22.19;62.20
27144;BME280;14672;50.250;8.312;2022-08-19T02:46:31;98463.38;;;22.09;62.47
27144;BME280;14672;50.250;8.312;2022-08-19T02:49:03;98481.19;;;21.94;62.76
27144;BME280;14672;50.250;8.312;2022-08-19T02:51:39;98469.78;;;22.01;62.13
27144;BME280;14672;50.250;8.312;2022-08-19T02:54:07;98474.56;;;21.99;61.62
27144;BME280;14672;50.250;8.312;2022-08-19T02:56:36;98465.19;;;21.93;61.75
27144;BME280;14672;50.250;8.312;2022-08-19T02:59:03;98475.41;;;21.94;61.87
27144;BME280;14672;50.250;8.312;2022-08-19T03:01:35;98470.47;;;21.89;61.94
27144;BME280;14672;50.250;8.312;2022-08-19T03:04:05;98473.75;;;21.80;62.28
27144;BME280;14672;50.250;8.312;2022-08-19T03:06:34;98480.38;;;21.75;62.38
27144;BME280;14672;50.250;8.312;2022-08-19T03:09:02;98481.91;;;21.57;63.01
27144;BME280;14672;50.250;8.312;2022-08-19T03:11:31;98487.22;;;21.53;63.31
27144;BME280;14672;50.250;8.312;2022-08-19T03:13:58;98485.13;;;21.53;63.10
27144;BME280;14672;50.250;8.312;2022-08-19T03:16:29;98488.75;;;21.54;62.72
27144;BME280;14672;50.250;8.312;2022-08-19T03:18:57;98471.72;;;21.50;63.01
27144;BME280;14672;50.250;8.312;2022-08-19T03:21:31;98478.00;;;21.54;63.03
27144;BME280;14672;50.250;8.312;2022-08-19T03:24:01;98471.56;;;21.43;63.34
27144;BME280;14672;50.250;8.312;2022-08-19T03:26:28;98469.97;;;21.42;63.76
27144;BME280;14672;50.250;8.312;2022-08-19T03:28:55;98474.94;;;21.47;63.50
27144;BME280;14672;50.250;8.312;2022-08-19T03:31:24;98470.13;;;21.31;64.19
27144;BME280;14672;50.250;8.312;2022-08-19T03:33:51;98475.84;;;21.12;64.51
27144;BME280;14672;50.250;8.312;2022-08-19T03:36:24;98478.88;;;21.25;64.07
27144;BME280;14672;50.250;8.312;2022-08-19T03:38:55;98480.88;;;21.30;63.84
27144;BME280;14672;50.250;8.312;2022-08-19T03:41:27;98483.59;;;21.23;64.01
27144;BME280;14672;50.250;8.312;2022-08-19T03:43:54;98474.16;;;21.22;64.46
27144;BME280;14672;50.250;8.312;2022-08-19T03:46:28;98477.78;;;21.28;63.98
27144;BME280;14672;50.250;8.312;2022-08-19T03:48:57;98472.31;;;21.25;64.27
27144;BME280;14672;50.250;8.312;2022-08-19T03:51:30;98467.31;;;21.25;64.06
27144;BME280;14672;50.250;8.312;2022-08-19T03:53:59;98468.16;;;21.20;64.29
27144;BME280;14672;50.250;8.312;2022-08-19T03:56:27;98475.34;;;21.08;65.29
27144;BME280;14672;50.250;8.312;2022-08-19T03:58:55;98484.81;;;21.03;64.98
27144;BME280;14672;50.250;8.312;2022-08-19T04:01:25;98481.72;;;21.01;65.43
27144;BME280;14672;50.250;8.312;2022-08-19T04:03:59;98488.28;;;21.01;65.25
27144;BME280;14672;50.250;8.312;2022-08-19T04:06:29;98491.38;;;21.03;65.18
27144;BME280;14672;50.250;8.312;2022-08-19T04:08:58;98488.81;;;21.00;65.22
27144;BME280;14672;50.250;8.312;2022-08-19T04:11:30;98488.56;;;20.98;65.32
27144;BME280;14672;50.250;8.312;2022-08-19T04:13:57;98486.03;;;20.89;65.25
27144;BME280;14672;50.250;8.312;2022-08-19T04:16:26;98489.44;;;20.87;65.08
27144;BME280;14672;50.250;8.312;2022-08-19T04:19:00;98501.56;;;20.86;66.03
27144;BME280;14672;50.250;8.312;2022-08-19T04:21:28;98505.75;;;20.85;65.29
27144;BME280;14672;50.250;8.312;2022-08-19T04:23:56;98506.84;;;20.82;65.48
27144;BME280;14672;50.250;8.312;2022-08-19T04:26:27;98498.84;;;20.93;65.13
27144;BME280;14672;50.250;8.312;2022-08-19T04:28:54;98494.44;;;20.87;64.96
27144;BME280;14672;50.250;8.312;2022-08-19T04:31:24;98500.78;;;20.80;65.06
27144;BME280;14672;50.250;8.312;2022-08-19T04:33:53;98502.09;;;20.79;65.05
27144;BME280;14672;50.250;8.312;2022-08-19T04:36:27;98499.81;;;20.72;65.07
27144;BME280;14672;50.250;8.312;2022-08-19T04:38:56;98490.63;;;20.73;65.06
27144;BME280;14672;50.250;8.312;2022-08-19T04:41:24;98487.19;;;20.75;65.23
27144;BME280;14672;50.250;8.312;2022-08-19T04:44:08;98491.72;;;20.70;65.34
27144;BME280;14672;50.250;8.312;2022-08-19T04:46:35;98491.94;;;20.72;65.62
27144;BME280;14672;50.250;8.312;2022-08-19T04:49:04;98500.00;;;20.79;65.57
27144;BME280;14672;50.250;8.312;2022-08-19T04:51:32;98507.66;;;20.77;65.50
27144;BME280;14672;50.250;8.312;2022-08-19T04:54:01;98501.13;;;20.71;65.49
27144;BME280;14672;50.250;8.312;2022-08-19T04:56:27;98499.31;;;20.68;65.83
27144;BME280;14672;50.250;8.312;2022-08-19T04:58:55;98499.81;;;20.72;65.86
27144;BME280;14672;50.250;8.312;2022-08-19T05:01:29;98509.28;;;20.67;66.16
27144;BME280;14672;50.250;8.312;2022-08-19T05:04:00;98504.88;;;20.66;66.10
27144;BME280;14672;50.250;8.312;2022-08-19T05:06:27;98499.09;;;20.66;66.34
27144;BME280;14672;50.250;8.312;2022-08-19T05:08:54;98503.81;;;20.63;66.13
27144;BME280;14672;50.250;8.312;2022-08-19T05:11:25;98509.28;;;20.67;66.37
27144;BME280;14672;50.250;8.312;2022-08-19T05:13:52;98519.78;;;20.70;66.41
27144;BME280;14672;50.250;8.312;2022-08-19T05:16:21;98527.88;;;20.77;66.31
27144;BME280;14672;50.250;8.312;2022-08-19T05:18:48;98540.69;;;20.81;66.12
27144;BME280;14672;50.250;8.312;2022-08-19T05:21:34;98532.31;;;20.78;66.21
27144;BME280;14672;50.250;8.312;2022-08-19T05:24:21;98527.53;;;20.86;66.00
27144;BME280;14672;50.250;8.312;2022-08-19T05:26:50;98519.41;;;20.84;66.54
27144;BME280;14672;50.250;8.312;2022-08-19T05:29:20;98520.19;;;20.85;66.60
27144;BME280;14672;50.250;8.312;2022-08-19T05:31:47;98512.63;;;20.76;66.47
27144;BME280;14672;50.250;8.312;2022-08-19T05:34:21;98519.53;;;20.68;67.04
27144;BME280;14672;50.250;8.312;2022-08-19T05:36:52;98527.09;;;20.71;67.25
27144;BME280;14672;50.250;8.312;2022-08-19T05:39:26;98513.09;;;20.86;66.71
27144;BME280;14672;50.250;8.312;2022-08-19T05:41:56;98515.38;;;20.93;66.89
27144;BME280;14672;50.250;8.312;2022-08-19T05:44:30;98512.44;;;20.98;67.02
27144;BME280;14672;50.250;8.312;2022-08-19T05:47:02;98511.38;;;21.01;67.24
27144;BME280;14672;50.250;8.312;2022-08-19T05:49:30;98512.34;;;21.09;66.98
27144;BME280;14672;50.250;8.312;2022-08-19T05:51:57;98510.22;;;21.16;67.06
27144;BME280;14672;50.250;8.312;2022-08-19T05:54:25;98522.25;;;21.20;66.95
27144;BME280;14672;50.250;8.312;2022-08-19T05:56:52;98521.59;;;21.32;67.00
27144;BME280;14672;50.250;8.312;2022-08-19T05:59:20;98524.66;;;21.40;67.12
27144;BME280;14672;50.250;8.312;2022-08-19T06:01:49;98526.41;;;21.48;66.83
27144;BME280;14672;50.250;8.312;2022-08-19T06:04:21;98530.03;;;21.54;67.15
27144;BME280;14672;50.250;8.312;2022-08-19T06:06:51;98524.66;;;21.64;67.16
27144;BME280;14672;50.250;8.312;2022-08-19T06:09:19;98534.28;;;21.72;67.07
27144;BME280;14672;50.250;8.312;2022-08-19T06:11:53;98532.09;;;21.78;66.59
27144;BME280;14672;50.250;8.312;2022-08-19T06:14:29;98541.19;;;21.88;66.06
27144;BME280;14672;50.250;8.312;2022-08-19T06:16:57;98539.81;;;21.94;65.94
27144;BME280;14672;50.250;8.312;2022-08-19T06:19:25;98550.50;;;22.05;66.13
27144;BME280;14672;50.250;8.312;2022-08-19T06:21:52;98546.34;;;22.19;65.43
27144;BME280;14672;50.250;8.312;2022-08-19T06:24:25;98547.81;;;22.26;65.77
27144;BME280;14672;50.250;8.312;2022-08-19T06:26:55;98542.19;;;22.33;65.61
27144;BME280;14672;50.250;8.312;2022-08-19T06:29:24;98552.06;;;22.43;65.62
27144;BME280;14672;50.250;8.312;2022-08-19T06:31:54;98564.59;;;22.52;64.45
27144;BME280;14672;50.250;8.312;2022-08-19T06:34:21;98564.66;;;22.65;64.25
27144;BME280;14672;50.250;8.312;2022-08-19T06:36:51;98572.72;;;22.72;63.61
27144;BME280;14672;50.250;8.312;2022-08-19T06:39:23;98568.00;;;22.87;62.97
27144;BME280;14672;50.250;8.312;2022-08-19T06:41:54;98561.69;;;23.02;62.37
27144;BME280;14672;50.250;8.312;2022-08-19T06:44:23;98561.28;;;23.11;61.30
27144;BME280;14672;50.250;8.312;2022-08-19T06:46:50;98554.84;;;23.18;61.57
27144;BME280;14672;50.250;8.312;2022-08-19T06:49:17;98568.34;;;23.16;62.24
27144;BME280;14672;50.250;8.312;2022-08-19T06:51:47;98572.81;;;23.17;62.47
27144;BME280;14672;50.250;8.312;2022-08-19T06:54:16;98577.50;;;23.20;62.57
27144;BME280;14672;50.250;8.312;2022-08-19T06:56:43;98576.28;;;23.28;62.20
27144;BME280;14672;50.250;8.312;2022-08-19T06:59:17;98572.41;;;23.39;61.70
27144;BME280;14672;50.250;8.312;2022-08-19T07:01:50;98571.09;;;23.53;61.11
27144;BME280;14672;50.250;8.312;2022-08-19T07:04:21;98566.78;;;23.60;60.79
27144;BME280;14672;50.250;8.312;2022-08-19T07:06:48;98567.91;;;23.70;60.15
27144;BME280;14672;50.250;8.312;2022-08-19T07:09:17;98561.22;;;23.75;60.18
27144;BME280;14672;50.250;8.312;2022-08-19T07:11:50;98567.66;;;23.81;60.41
27144;BME280;14672;50.250;8.312;2022-08-19T07:14:20;98571.25;;;23.87;60.29
27144;BME280;14672;50.250;8.312;2022-08-19T07:16:49;98567.47;;;23.92;59.89
27144;BME280;14672;50.250;8.312;2022-08-19T07:19:19;98577.06;;;24.00;59.47
27144;BME280;14672;50.250;8.312;2022-08-19T07:21:48;98573.50;;;24.07;59.60
27144;BME280;14672;50.250;8.312;2022-08-19T07:24:15;98577.31;;;24.15;58.81
27144;BME280;14672;50.250;8.312;2022-08-19T07:26:43;98573.72;;;24.22;58.36
27144;BME280;14672;50.250;8.312;2022-08-19T07:29:10;98573.72;;;24.22;58.79
27144;BME280;14672;50.250;8.312;2022-08-19T07:31:37;98576.88;;;24.24;58.80
27144;BME280;14672;50.250;8.312;2022-08-19T07:34:06;98583.50;;;24.32;58.75
27144;BME280;14672;50.250;8.312;2022-08-19T07:36:38;98581.50;;;24.41;58.68
27144;BME280;14672;50.250;8.312;2022-08-19T07:39:15;98584.53;;;24.48;58.41
27144;BME280;14672;50.250;8.312;2022-08-19T07:41:45;98576.44;;;24.54;58.04
27144;BME280;14672;50.250;8.312;2022-08-19T07:44:14;98584.25;;;24.59;58.24
27144;BME280;14672;50.250;8.312;2022-08-19T07:46:43;98568.25;;;24.66;57.96
27144;BME280;14672;50.250;8.312;2022-08-19T07:49:12;98577.75;;;24.66;57.75
27144;BME280;14672;50.250;8.312;2022-08-19T07:51:55;98563.13;;;24.72;58.29
27144;BME280;14672;50.250;8.312;2022-08-19T07:54:24;98569.13;;;24.74;58.07
27144;BME280;14672;50.250;8.312;2022-08-19T07:56:54;98563.13;;;24.72;57.87
27144;BME280;14672;50.250;8.312;2022-08-19T07:59:22;98574.47;;;24.83;57.37
27144;BME280;14672;50.250;8.312;2022-08-19T08:01:51;98567.97;;;24.90;57.31
27144;BME280;14672;50.250;8.312;2022-08-19T08:04:19;98557.22;;;24.98;57.52
27144;BME280;14672;50.250;8.312;2022-08-19T08:07:05;98568.91;;;25.06;57.50
27144;BME280;14672;50.250;8.312;2022-08-19T08:09:51;98575.59;;;25.14;57.27
27144;BME280;14672;50.250;8.312;2022-08-19T08:12:33;98575.81;;;25.16;57.37
27144;BME280;14672;50.250;8.312;2022-08-19T08:15:07;98572.19;;;25.23;57.08
27144;BME280;14672;50.250;8.312;2022-08-19T08:17:34;98575.09;;;25.23;57.02
27144;BME280;14672;50.250;8.312;2022-08-19T08:20:07;98577.22;;;25.22;57.14
27144;BME280;14672;50.250;8.312;2022-08-19T08:22:34;98584.88;;;25.33;56.88
27144;BME280;14672;50.250;8.312;2022-08-19T08:25:22;98584.75;;;25.39;56.14
27144;BME280;14672;50.250;8.312;2022-08-19T08:27:49;98584.56;;;25.44;56.27
27144;BME280;14672;50.250;8.312;2022-08-19T08:30:20;98590.97;;;25.43;56.49
27144;BME280;14672;50.250;8.312;2022-08-19T08:32:48;98590.63;;;25.46;56.33
27144;BME280;14672;50.250;8.312;2022-08-19T08:35:20;98590.63;;;25.46;56.89
27144;BME280;14672;50.250;8.312;2022-08-19T08:37:48;98593.66;;;25.41;56.75
27144;BME280;14672;50.250;8.312;2022-08-19T08:40:50;98595.03;;;25.40;56.72
27144;BME280;14672;50.250;8.312;2022-08-19T08:43:38;98604.94;;;25.44;56.59
27144;BME280;14672;50.250;8.312;2022-08-19T08:46:21;98610.44;;;25.48;56.29
27144;BME280;14672;50.250;8.312;2022-08-19T08:49:13;98605.81;;;25.52;56.19
27144;BME280;14672;50.250;8.312;2022-08-19T08:51:57;98599.63;;;25.56;56.66
27144;BME280;14672;50.250;8.312;2022-08-19T08:54:50;98603.63;;;25.66;55.95
27144;BME280;14672;50.250;8.312;2022-08-19T08:57:29;98602.28;;;25.67;56.11
27144;BME280;14672;50.250;8.312;2022-08-19T09:00:04;98607.31;;;25.66;55.77
27144;BME280;14672;50.250;8.312;2022-08-19T09:02:32;98607.50;;;25.68;55.52
27144;BME280;14672;50.250;8.312;2022-08-19T09:05:00;98613.59;;;25.78;55.71
27144;BME280;14672;50.250;8.312;2022-08-19T09:08:02;98611.13;;;25.82;55.49
27144;BME280;14672;50.250;8.312;2022-08-19T09:16:20;98598.59;;;25.95;55.47
27144;BME280;14672;50.250;8.312;2022-08-19T09:18:53;98610.81;;;25.93;54.85
27144;BME280;14672;50.250;8.312;2022-08-19T09:21:21;98608.88;;;25.96;55.00
27144;BME280;14672;50.250;8.312;2022-08-19T09:23:52;98602.34;;;26.03;54.91
27144;BME280;14672;50.250;8.312;2022-08-19T09:26:21;98610.91;;;26.08;54.49
27144;BME280;14672;50.250;8.312;2022-08-19T09:28:50;98611.31;;;26.12;54.36
27144;BME280;14672;50.250;8.312;2022-08-19T09:31:27;98610.84;;;26.22;54.68
27144;BME280;14672;50.250;8.312;2022-08-19T09:33:54;98600.00;;;26.30;54.02
27144;BME280;14672;50.250;8.312;2022-08-19T09:36:26;98599.22;;;26.29;53.87
27144;BME280;14672;50.250;8.312;2022-08-19T09:38:55;98588.53;;;26.32;53.72
27144;BME280;14672;50.250;8.312;2022-08-19T09:41:24;98582.72;;;26.32;53.58
27144;BME280;14672;50.250;8.312;2022-08-19T09:43:54;98579.50;;;26.43;53.66
27144;BME280;14672;50.250;8.312;2022-08-19T09:58:27;98555.50;;;26.73;51.95
27144;BME280;14672;50.250;8.312;2022-08-19T10:00:56;98569.75;;;26.84;51.74
27144;BME280;14672;50.250;8.312;2022-08-19T10:03:24;98561.63;;;26.97;51.38
27144;BME280;14672;50.250;8.312;2022-08-19T10:05:51;98575.66;;;27.06;50.82
27144;BME280;14672;50.250;8.312;2022-08-19T10:08:33;98563.78;;;27.12;51.04
27144;BME280;14672;50.250;8.312;2022-08-19T10:11:03;98565.53;;;27.07;49.19
27144;BME280;14672;50.250;8.312;2022-08-19T10:13:32;98572.16;;;27.16;49.36
27144;BME280;14672;50.250;8.312;2022-08-19T10:16:10;98560.53;;;27.31;49.34
27144;BME280;14672;50.250;8.312;2022-08-19T10:18:37;98560.53;;;27.38;48.96
27144;BME280;14672;50.250;8.312;2022-08-19T10:21:13;98565.19;;;27.41;49.47
27144;BME280;14672;50.250;8.312;2022-08-19T10:23:46;98554.91;;;27.48;49.01
27144;BME280;14672;50.250;8.312;2022-08-19T10:26:17;98558.41;;;27.54;48.54
27144;BME280;14672;50.250;8.312;2022-08-19T10:28:44;98557.81;;;27.71;48.54
27144;BME280;14672;50.250;8.312;2022-08-19T10:31:17;98560.34;;;27.74;48.42
27144;BME280;14672;50.250;8.312;2022-08-19T10:33:44;98546.31;;;27.80;47.84
27144;BME280;14672;50.250;8.312;2022-08-19T10:36:15;98541.25;;;27.88;48.00
27144;BME280;14672;50.250;8.312;2022-08-19T10:38:49;98539.66;;;27.95;47.82
27144;BME280;14672;50.250;8.312;2022-08-19T10:41:23;98551.13;;;28.08;47.47
27144;BME280;14672;50.250;8.312;2022-08-19T10:43:54;98541.59;;;28.00;46.59
27144;BME280;14672;50.250;8.312;2022-08-19T10:46:23;98546.47;;;27.97;46.21
27144;BME280;14672;50.250;8.312;2022-08-19T10:48:50;98540.25;;;28.01;45.87
27144;BME280;14672;50.250;8.312;2022-08-19T10:51:23;98533.22;;;28.12;46.32
27144;BME280;14672;50.250;8.312;2022-08-19T10:54:07;98534.97;;;28.15;46.49
27144;BME280;14672;50.250;8.312;2022-08-19T10:56:34;98541.75;;;28.25;45.63
27144;BME280;14672;50.250;8.312;2022-08-19T10:59:24;98538.06;;;28.24;45.88
27144;BME280;14672;50.250;8.312;2022-08-19T11:02:01;98540.38;;;28.33;44.44
27144;BME280;14672;50.250;8.312;2022-08-19T11:04:28;98534.88;;;28.45;44.36
27144;BME280;14672;50.250;8.312;2022-08-19T11:06:55;98522.75;;;28.48;45.48
27144;BME280;14672;50.250;8.312;2022-08-19T11:09:24;98515.53;;;28.57;44.57
27144;BME280;14672;50.250;8.312;2022-08-19T11:11:52;98518.97;;;28.63;44.41
27144;BME280;14672;50.250;8.312;2022-08-19T11:14:20;98517.44;;;28.70;44.69
27144;BME280;14672;50.250;8.312;2022-08-19T11:16:48;98516.25;;;28.73;44.67
27144;BME280;14672;50.250;8.312;2022-08-19T11:19:16;98515.81;;;28.76;44.50
27144;BME280;14672;50.250;8.312;2022-08-19T11:21:47;98514.63;;;28.79;43.97
27144;BME280;14672;50.250;8.312;2022-08-19T11:24:21;98522.41;;;28.84;44.18
27144;BME280;14672;50.250;8.312;2022-08-19T11:26:50;98511.44;;;28.92;43.57
27144;BME280;14672;50.250;8.312;2022-08-19T11:29:20;98512.88;;;29.09;43.72
27144;BME280;14672;50.250;8.312;2022-08-19T11:31:49;98503.09;;;29.14;43.87
27144;BME280;14672;50.250;8.312;2022-08-19T11:34:21;98510.25;;;29.20;43.01
27144;BME280;14672;50.250;8.312;2022-08-19T11:36:52;98507.34;;;29.20;43.13
27144;BME280;14672;50.250;8.312;2022-08-19T11:39:22;98514.31;;;29.25;41.14
27144;BME280;14672;50.250;8.312;2022-08-19T11:41:58;98501.25;;;29.26;41.38
27144;BME280;14672;50.250;8.312;2022-08-19T11:44:25;98499.06;;;29.34;41.75
27144;BME280;14672;50.250;8.312;2022-08-19T11:46:51;98501.22;;;29.33;42.05
27144;BME280;14672;50.250;8.312;2022-08-19T11:49:19;98495.59;;;29.28;41.81
27144;BME280;14672;50.250;8.312;2022-08-19T11:51:48;98477.19;;;29.35;42.02
27144;BME280;14672;50.250;8.312;2022-08-19T11:54:26;98475.22;;;29.37;42.55
27144;BME280;14672;50.250;8.312;2022-08-19T11:56:52;98474.38;;;29.45;41.84
27144;BME280;14672;50.250;8.312;2022-08-19T11:59:18;98475.59;;;29.42;41.76
27144;BME280;14672;50.250;8.312;2022-08-19T12:01:44;98467.69;;;29.52;40.29
27144;BME280;14672;50.250;8.312;2022-08-19T12:04:32;98468.03;;;29.56;40.46
27144;BME280;14672;50.250;8.312;2022-08-19T12:06:58;98450.09;;;29.52;41.33
27144;BME280;14672;50.250;8.312;2022-08-19T12:09:24;98456.44;;;29.65;40.84
27144;BME280;14672;50.250;8.312;2022-08-19T12:11:50;98457.88;;;29.57;41.05
27144;BME280;14672;50.250;8.312;2022-08-19T12:14:16;98455.53;;;29.55;41.09
27144;BME280;14672;50.250;8.312;2022-08-19T12:16:45;98445.38;;;29.56;40.08
27144;BME280;14672;50.250;8.312;2022-08-19T12:19:12;98452.97;;;29.59;40.20
27144;BME280;14672;50.250;8.312;2022-08-19T12:21:38;98453.75;;;29.60;40.23
27144;BME280;14672;50.250;8.312;2022-08-19T12:24:06;98449.94;;;29.67;40.44
27144;BME280;14672;50.250;8.312;2022-08-19T12:26:32;98462.19;;;29.73;40.34
27144;BME280;14672;50.250;8.312;2022-08-19T12:28:59;98460.03;;;29.73;40.03
27144;BME280;14672;50.250;8.312;2022-08-19T12:31:27;98465.56;;;29.87;38.63
27144;BME280;14672;50.250;8.312;2022-08-19T12:33:54;98460.81;;;29.74;39.25
27144;BME280;14672;50.250;8.312;2022-08-19T12:36:20;98479.25;;;29.84;38.53
27144;BME280;14672;50.250;8.312;2022-08-19T12:38:47;98479.03;;;29.90;39.27
27144;BME280;14672;50.250;8.312;2022-08-19T12:41:16;98476.81;;;29.98;37.93
27144;BME280;14672;50.250;8.312;2022-08-19T12:43:44;98467.91;;;30.05;38.32
27144;BME280;14672;50.250;8.312;2022-08-19T12:46:11;98474.88;;;30.10;36.75
27144;BME280;14672;50.250;8.312;2022-08-19T12:48:38;98466.94;;;30.20;37.28
27144;BME280;14672;50.250;8.312;2022-08-19T12:51:10;98456.34;;;30.24;38.01
27144;BME280;14672;50.250;8.312;2022-08-19T12:53:37;98461.19;;;30.12;38.54
27144;BME280;14672;50.250;8.312;2022-08-19T12:56:03;98461.34;;;30.14;38.64
27144;BME280;14672;50.250;8.312;2022-08-19T12:59:09;98470.22;;;30.24;37.00
27144;BME280;14672;50.250;8.312;2022-08-19T13:01:37;98447.25;;;30.30;37.10
27144;BME280;14672;50.250;8.312;2022-08-19T13:04:03;98465.78;;;30.50;37.42
27144;BME280;14672;50.250;8.312;2022-08-19T13:06:30;98461.44;;;30.68;37.27
27144;BME280;14672;50.250;8.312;2022-08-19T13:08:56;98458.72;;;30.80;36.20
27144;BME280;14672;50.250;8.312;2022-08-19T13:11:22;98455.41;;;30.93;36.24
27144;BME280;14672;50.250;8.312;2022-08-19T13:13:52;98453.94;;;31.11;36.27
27144;BME280;14672;50.250;8.312;2022-08-19T13:16:21;98454.94;;;31.23;35.55
27144;BME280;14672;50.250;8.312;2022-08-19T13:18:49;98453.38;;;31.22;34.89
27144;BME280;14672;50.250;8.312;2022-08-19T13:21:20;98457.59;;;31.29;34.84
27144;BME280;14672;50.250;8.312;2022-08-19T13:23:47;98462.22;;;31.32;35.08
27144;BME280;14672;50.250;8.312;2022-08-19T13:26:15;98462.09;;;31.39;34.64
27144;BME280;14672;50.250;8.312;2022-08-19T13:28:42;98455.63;;;31.50;34.30
27144;BME280;14672;50.250;8.312;2022-08-19T13:31:33;98458.22;;;31.46;33.81
27144;BME280;14672;50.250;8.312;2022-08-19T13:34:27;98462.25;;;31.51;33.80
27144;BME280;14672;50.250;8.312;2022-08-19T13:36:55;98464.59;;;31.52;34.71